Time;durP1;ratioP1;P1;durP2;ratioP2;P2;SDS_P1;SDS_P2;PMS_P1;PMS_P2;Temp;Humidity;BMP_temperature;BMP_pressure;BME280_temperature;BME280_humidity;BME280_pressure;Samples;Min_cycle;Max_cycle;Signal;HPM_P1;HPM_P2
2023/07/27 05:19:59;;;;;;;;;;;;;;;16.10;62.50;99235.25;5729056;23;4020;-74
2023/07/27 05:22:51;;;;;;;;;;;;;;;15.83;63.19;99230.38;4977548;28;4267;-73
2023/07/27 05:25:43;;;;;;;;;;;;;;;15.98;62.79;99236.78;4976782;28;4321;-73
2023/07/27 05:28:35;;;;;;;;;;;;;;;15.93;62.93;99232.19;4977375;28;4569;-73
2023/07/27 05:31:27;;;;;;;;;;;;;;;16.19;62.05;99242.78;4977372;28;4146;-74
2023/07/27 05:34:19;;;;;;;;;;;;;;;16.11;62.23;99236.88;4973473;28;4149;-76
2023/07/27 05:37:11;;;;;;;;;;;;;;;15.88;62.93;99243.91;4974768;28;4095;-74
2023/07/27 05:40:04;;;;;;;;;;;;;;;15.88;62.91;99243.09;4982632;28;4173;-75
2023/07/27 05:42:55;;;;;;;;;;;;;;;15.90;62.95;99241.72;4977155;28;4240;-75
2023/07/27 05:45:46;;;;;;;;;;;;;;;15.77;63.25;99245.09;4978052;28;4192;-73
2023/07/27 05:48:37;;;;;;;;;;;;;;;15.85;63.06;99239.06;4967807;28;3962;-73
2023/07/27 05:51:29;;;;;;;;;;;;;;;15.96;62.61;99237.03;4979160;28;4202;-74
2023/07/27 05:54:21;;;;;;;;;;;;;;;15.94;62.73;99233.00;4975737;28;4164;-73
2023/07/27 05:57:13;;;;;;;;;;;;;;;15.99;62.62;99239.19;4977155;28;4179;-73
2023/07/27 06:00:06;;;;;;;;;;;;;;;16.20;61.96;99233.53;4974772;28;4161;-75
2023/07/27 06:02:57;;;;;;;;;;;;;;;16.00;62.37;99237.28;4976105;28;4123;-75
2023/07/27 06:05:48;;;;;;;;;;;;;;;16.04;62.48;99233.69;4976714;28;4202;-74
2023/07/27 06:08:41;;;;;;;;;;;;;;;15.89;62.71;99239.28;4973836;28;4122;-73
2023/07/27 06:11:32;;;;;;;;;;;;;;;15.74;63.32;99242.97;4981296;28;4720;-74
2023/07/27 06:14:25;;;;;;;;;;;;;;;16.08;62.26;99250.22;4982737;28;4255;-73
2023/07/27 06:17:16;;;;;;;;;;;;;;;15.88;62.82;99257.50;4980028;28;4201;-73
2023/07/27 06:20:08;;;;;;;;;;;;;;;15.74;63.34;99250.31;4967001;28;4202;-73
2023/07/27 06:23:00;;;;;;;;;;;;;;;15.79;63.00;99261.09;4957406;28;4146;-72
2023/07/27 06:25:51;;;;;;;;;;;;;;;15.83;63.01;99260.25;4951840;28;4214;-76
2023/07/27 06:28:44;;;;;;;;;;;;;;;15.72;63.36;99252.47;4947919;28;4113;-75
2023/07/27 06:31:35;;;;;;;;;;;;;;;15.69;63.42;99258.47;4952068;28;4042;-75
2023/07/27 06:34:28;;;;;;;;;;;;;;;15.69;63.45;99253.06;4950592;28;4067;-77
2023/07/27 06:37:20;;;;;;;;;;;;;;;15.71;63.32;99254.41;4950559;28;4102;-73
2023/07/27 06:40:13;;;;;;;;;;;;;;;15.64;63.54;99254.66;4953373;28;4072;-75
2023/07/27 06:43:04;;;;;;;;;;;;;;;15.87;62.88;99257.78;4946853;28;4018;-76
2023/07/27 06:45:56;;;;;;;;;;;;;;;15.65;63.43;99258.22;4949098;28;4090;-75
2023/07/27 06:48:48;;;;;;;;;;;;;;;15.79;63.15;99259.19;4950033;28;4035;-73
2023/07/27 06:51:40;;;;;;;;;;;;;;;15.70;63.40;99254.66;4949843;28;3959;-75
2023/07/27 06:54:32;;;;;;;;;;;;;;;15.63;63.73;99254.97;4951390;28;4074;-75
2023/07/27 06:57:24;;;;;;;;;;;;;;;15.56;63.96;99257.19;4950300;28;3987;-73
2023/07/27 07:00:17;;;;;;;;;;;;;;;15.60;63.75;99261.78;4949150;28;4187;-76
2023/07/27 07:03:08;;;;;;;;;;;;;;;15.51;64.11;99255.34;4947919;28;3832;-73
2023/07/27 07:05:59;;;;;;;;;;;;;;;15.51;64.07;99265.38;4953047;28;5077;-73
2023/07/27 07:08:51;;;;;;;;;;;;;;;15.50;64.22;99264.56;4952319;28;4130;-74
2023/07/27 07:11:43;;;;;;;;;;;;;;;15.49;64.14;99265.66;4948558;28;3995;-74
2023/07/27 07:14:35;;;;;;;;;;;;;;;15.51;64.20;99273.53;4949055;28;3966;-72
2023/07/27 07:17:27;;;;;;;;;;;;;;;15.50;64.18;99271.88;4949735;28;4012;-74
2023/07/27 07:20:19;;;;;;;;;;;;;;;15.51;64.09;99268.09;4953505;28;4041;-73
2023/07/27 07:23:12;;;;;;;;;;;;;;;15.52;64.00;99270.50;4956037;28;4209;-73
2023/07/27 07:26:03;;;;;;;;;;;;;;;15.53;64.09;99279.47;4951690;28;4117;-73
2023/07/27 07:28:54;;;;;;;;;;;;;;;15.53;64.18;99279.47;4954922;28;3980;-75
2023/07/27 07:31:46;;;;;;;;;;;;;;;15.55;64.06;99280.78;4952563;28;4083;-74
2023/07/27 07:34:38;;;;;;;;;;;;;;;15.56;63.97;99277.00;4953348;28;4043;-74
2023/07/27 07:37:31;;;;;;;;;;;;;;;15.58;64.08;99282.94;4952979;28;3994;-74
2023/07/27 07:40:24;;;;;;;;;;;;;;;15.58;63.96;99280.22;4952467;28;3915;-73
2023/07/27 07:43:15;;;;;;;;;;;;;;;15.60;63.82;99277.25;4951561;28;3936;-73
2023/07/27 07:46:07;;;;;;;;;;;;;;;15.61;63.72;99282.38;4955661;28;3960;-75
2023/07/27 07:48:58;;;;;;;;;;;;;;;15.64;63.74;99281.00;4954035;28;3871;-74
2023/07/27 07:51:51;;;;;;;;;;;;;;;15.64;63.74;99281.00;4954520;28;3983;-74
2023/07/27 07:54:42;;;;;;;;;;;;;;;15.19;63.73;99212.44;4951211;28;4042;-73
2023/07/27 07:57:34;;;;;;;;;;;;;;;15.66;63.71;99286.97;4948769;28;3907;-73
2023/07/27 08:00:26;;;;;;;;;;;;;;;15.65;63.69;99286.16;4951718;28;4023;-74
2023/07/27 08:03:18;;;;;;;;;;;;;;;15.65;63.77;99288.88;4957932;28;4730;-73
2023/07/27 08:06:09;;;;;;;;;;;;;;;15.64;63.76;99289.94;4953272;28;3976;-74
2023/07/27 08:09:01;;;;;;;;;;;;;;;15.64;63.77;99292.66;4952087;28;4054;-75
2023/07/27 08:11:54;;;;;;;;;;;;;;;15.64;63.79;99286.44;4953154;28;3716;-75
2023/07/27 08:14:46;;;;;;;;;;;;;;;15.65;63.85;99275.31;4951035;28;3960;-74
2023/07/27 08:17:37;;;;;;;;;;;;;;;15.66;63.69;99279.63;4951352;28;3842;-74
2023/07/27 08:20:29;;;;;;;;;;;;;;;15.68;63.69;99284.81;4950904;28;3926;-73
2023/07/27 08:23:22;;;;;;;;;;;;;;;15.69;63.68;99281.00;4950797;28;3800;-76
2023/07/27 08:26:14;;;;;;;;;;;;;;;15.68;63.71;99295.66;4951000;28;3909;-73
2023/07/27 08:29:05;;;;;;;;;;;;;;;15.65;63.78;99283.44;4949381;28;3942;-74
2023/07/27 08:31:57;;;;;;;;;;;;;;;15.68;63.75;99292.97;4957786;28;4061;-73
2023/07/27 08:34:49;;;;;;;;;;;;;;;15.65;63.91;99288.88;4954650;28;4645;-77
2023/07/27 08:37:41;;;;;;;;;;;;;;;15.69;63.83;99299.19;4962149;28;4880;-74
2023/07/27 08:40:33;;;;;;;;;;;;;;;15.66;63.88;99295.91;4962361;28;4186;-76
2023/07/27 08:43:25;;;;;;;;;;;;;;;15.66;63.90;99301.34;4957377;28;4149;-74
2023/07/27 08:46:17;;;;;;;;;;;;;;;15.67;63.83;99297.56;4959021;28;4825;-74
2023/07/27 08:49:10;;;;;;;;;;;;;;;15.67;63.89;99304.84;4960563;28;4855;-75
2023/07/27 08:52:01;;;;;;;;;;;;;;;15.67;63.88;99299.44;4958472;28;4643;-75
2023/07/27 08:54:53;;;;;;;;;;;;;;;15.66;63.99;99306.78;4959739;28;4736;-76
2023/07/27 08:57:45;;;;;;;;;;;;;;;15.67;63.90;99294.00;4962570;28;4866;-74
2023/07/27 09:00:38;;;;;;;;;;;;;;;15.71;63.92;99297.00;4961614;28;4393;-73
2023/07/27 09:03:29;;;;;;;;;;;;;;;15.69;63.91;99297.28;4957160;28;3912;-76
2023/07/27 09:06:22;;;;;;;;;;;;;;;15.76;63.71;99297.75;4954559;28;4021;-76
2023/07/27 09:09:13;;;;;;;;;;;;;;;15.74;63.80;99299.97;4944492;28;4116;-74
2023/07/27 09:12:06;;;;;;;;;;;;;;;15.72;63.86;99299.44;4948391;28;4172;-74
2023/07/27 09:14:59;;;;;;;;;;;;;;;15.71;63.86;99300.53;4947598;28;3944;-74
2023/07/27 09:17:51;;;;;;;;;;;;;;;15.79;63.73;99304.53;4952477;28;3970;-75
2023/07/27 09:20:42;;;;;;;;;;;;;;;15.73;63.81;99306.47;4953624;28;3990;-75
2023/07/27 09:23:35;;;;;;;;;;;;;;;15.71;63.90;99311.38;4960979;28;4509;-77
2023/07/27 09:26:27;;;;;;;;;;;;;;;15.84;63.60;99312.63;4961476;28;4210;-75
2023/07/27 09:29:19;;;;;;;;;;;;;;;15.93;63.19;99319.06;4959342;28;4561;-73
2023/07/27 09:32:11;;;;;;;;;;;;;;;15.95;63.24;99322.31;4958544;28;4244;-73
2023/07/27 09:35:03;;;;;;;;;;;;;;;15.95;63.20;99316.88;4957357;28;4087;-74
2023/07/27 09:37:54;;;;;;;;;;;;;;;15.97;63.13;99316.59;4958715;28;4122;-74
2023/07/27 09:40:46;;;;;;;;;;;;;;;15.96;63.16;99317.69;4957481;28;4131;-75
2023/07/27 09:43:39;;;;;;;;;;;;;;;15.98;63.13;99316.31;4958468;28;4545;-74
2023/07/27 09:46:31;;;;;;;;;;;;;;;16.00;63.07;99322.28;4959788;28;4114;-74
2023/07/27 09:49:22;;;;;;;;;;;;;;;16.01;63.05;99323.09;4960332;28;4546;-73
2023/07/27 09:52:13;;;;;;;;;;;;;;;15.98;63.17;99320.94;4960186;28;4211;-73
2023/07/27 09:55:05;;;;;;;;;;;;;;;15.96;63.25;99323.13;4951661;28;4722;-74
2023/07/27 09:57:57;;;;;;;;;;;;;;;16.01;63.10;99325.81;4946067;28;4048;-74
2023/07/27 10:00:49;;;;;;;;;;;;;;;16.01;63.15;99328.53;4949412;28;3975;-74
2023/07/27 10:03:44;;;;;;;;;;;;;;;16.00;63.14;99327.72;4948198;28;3901;-76
2023/07/27 10:06:36;;;;;;;;;;;;;;;16.05;62.98;99329.56;4955843;28;4769;-74
2023/07/27 10:09:28;;;;;;;;;;;;;;;15.98;63.41;99320.94;4949975;28;4971;-75
2023/07/27 10:12:20;;;;;;;;;;;;;;;15.99;63.28;99322.56;4948237;28;3789;-75
2023/07/27 10:15:12;;;;;;;;;;;;;;;15.91;63.49;99318.53;4949356;28;3896;-73
2023/07/27 10:18:05;;;;;;;;;;;;;;;15.93;63.45;99327.22;4959679;28;4984;-74
2023/07/27 10:20:56;;;;;;;;;;;;;;;15.88;63.63;99317.22;4949752;28;3781;-74
2023/07/27 10:23:49;;;;;;;;;;;;;;;15.92;63.47;99320.16;4947818;28;4132;-74
2023/07/27 10:26:40;;;;;;;;;;;;;;;15.90;63.61;99314.22;4951629;28;3891;-74
2023/07/27 10:29:33;;;;;;;;;;;;;;;15.85;63.76;99306.94;4941630;28;3960;-74
2023/07/27 10:32:25;;;;;;;;;;;;;;;15.93;63.48;99310.91;4946668;28;3857;-75
2023/07/27 10:35:16;;;;;;;;;;;;;;;15.93;63.55;99307.41;4946263;28;3873;-75
2023/07/27 10:38:07;;;;;;;;;;;;;;;15.93;63.59;99310.13;4945975;28;3828;-76
2023/07/27 10:40:58;;;;;;;;;;;;;;;15.94;63.60;99303.59;4948961;28;4008;-77
2023/07/27 10:43:50;;;;;;;;;;;;;;;15.93;63.61;99304.69;4947386;28;3924;-74
2023/07/27 10:46:42;;;;;;;;;;;;;;;16.03;63.43;99305.41;4947356;28;3982;-73
2023/07/27 10:49:34;;;;;;;;;;;;;;;15.99;63.43;99304.34;4955729;28;4623;-77
2023/07/27 10:52:25;;;;;;;;;;;;;;;16.02;63.29;99311.13;4959235;28;4614;-74
2023/07/27 10:55:19;;;;;;;;;;;;;;;16.04;63.28;99301.59;4961158;28;4766;-76
2023/07/27 10:58:11;;;;;;;;;;;;;;;16.01;63.50;99307.59;4950645;28;3976;-74
2023/07/27 11:01:02;;;;;;;;;;;;;;;16.02;63.43;99309.22;4951025;28;3864;-75
2023/07/27 11:03:55;;;;;;;;;;;;;;;16.04;63.24;99304.31;4955770;28;4004;-73
2023/07/27 11:06:47;;;;;;;;;;;;;;;16.07;63.30;99305.66;4958337;28;4670;-75
2023/07/27 11:09:39;;;;;;;;;;;;;;;16.02;63.37;99302.97;4960514;28;4877;-75
2023/07/27 11:12:31;;;;;;;;;;;;;;;16.05;63.33;99303.19;4960063;28;4662;-77
2023/07/27 11:15:22;;;;;;;;;;;;;;;16.06;63.42;99306.72;4957987;28;4830;-76
2023/07/27 11:18:15;;;;;;;;;;;;;;;16.06;63.29;99310.28;4957256;28;4793;-76
2023/07/27 11:21:06;;;;;;;;;;;;;;;16.02;63.42;99313.84;4961422;28;4760;-75
2023/07/27 11:23:59;;;;;;;;;;;;;;;16.03;63.51;99315.44;4951293;28;4813;-75
2023/07/27 11:26:50;;;;;;;;;;;;;;;16.00;63.63;99306.00;4967494;28;4769;-75
2023/07/27 11:29:45;;;;;;;;;;;;;;;16.01;63.65;99309.50;4959424;28;4762;-74
2023/07/27 11:32:37;;;;;;;;;;;;;;;16.00;63.58;99294.28;4955737;28;4696;-74
2023/07/27 11:35:29;;;;;;;;;;;;;;;15.99;63.72;99304.34;4958419;28;4779;-75
2023/07/27 11:38:21;;;;;;;;;;;;;;;16.00;63.71;99305.16;4960905;28;4821;-76
2023/07/27 11:41:12;;;;;;;;;;;;;;;16.01;63.75;99298.66;4956740;28;3729;-74
2023/07/27 11:44:05;;;;;;;;;;;;;;;16.02;63.70;99301.06;4954781;28;3975;-74
2023/07/27 11:46:57;;;;;;;;;;;;;;;16.01;63.77;99302.16;4955912;28;4400;-74
2023/07/27 11:49:49;;;;;;;;;;;;;;;15.95;63.95;99295.16;4964721;28;4987;-75
2023/07/27 11:52:41;;;;;;;;;;;;;;;15.99;63.96;99298.91;4962650;28;4929;-75
2023/07/27 11:55:33;;;;;;;;;;;;;;;16.02;63.85;99298.34;4961881;28;4935;-74
2023/07/27 11:58:24;;;;;;;;;;;;;;;16.01;63.91;99304.06;4961306;28;4822;-76
2023/07/27 12:01:16;;;;;;;;;;;;;;;16.03;63.87;99293.72;4961521;28;4138;-73
2023/07/27 12:04:09;;;;;;;;;;;;;;;16.03;63.90;99296.44;4962781;28;3964;-74
2023/07/27 12:07:00;;;;;;;;;;;;;;;16.04;63.92;99298.06;4959095;28;4731;-74
2023/07/27 12:09:52;;;;;;;;;;;;;;;16.05;63.96;99286.09;4960182;28;4734;-74
2023/07/27 12:12:44;;;;;;;;;;;;;;;16.04;63.98;99290.72;4962645;28;4927;-75
2023/07/27 12:15:36;;;;;;;;;;;;;;;16.03;63.95;99288.28;4963682;28;4806;-74
2023/07/27 12:18:28;;;;;;;;;;;;;;;16.03;64.02;99278.25;4961230;28;4658;-75
2023/07/27 12:21:19;;;;;;;;;;;;;;;16.04;64.07;99279.88;4961017;28;4782;-76
2023/07/27 12:24:11;;;;;;;;;;;;;;;16.04;64.16;99273.63;4960345;28;4856;-76
2023/07/27 12:27:06;;;;;;;;;;;;;;;16.04;64.21;99271.72;4961600;28;4845;-76
2023/07/27 12:29:57;;;;;;;;;;;;;;;16.04;64.20;99282.59;4959917;28;4702;-74
2023/07/27 12:32:48;;;;;;;;;;;;;;;16.06;64.24;99282.28;4959805;28;4897;-75
2023/07/27 12:35:39;;;;;;;;;;;;;;;16.06;64.23;99282.28;4961705;28;4844;-74
2023/07/27 12:38:31;;;;;;;;;;;;;;;16.05;64.20;99283.38;4962030;28;4896;-75
2023/07/27 12:41:23;;;;;;;;;;;;;;;16.07;64.32;99286.63;4958122;28;4931;-76
2023/07/27 12:44:15;;;;;;;;;;;;;;;16.07;64.40;99275.78;4947950;28;3941;-76
2023/07/27 12:47:06;;;;;;;;;;;;;;;16.07;64.35;99283.91;4948033;28;3946;-77
2023/07/27 12:49:59;;;;;;;;;;;;;;;16.10;64.30;99277.91;4953444;28;4734;-76
2023/07/27 12:52:50;;;;;;;;;;;;;;;16.10;64.37;99276.00;4958041;28;4712;-74
2023/07/27 12:55:42;;;;;;;;;;;;;;;16.11;64.39;99280.31;4948061;28;3912;-75
2023/07/27 12:58:33;;;;;;;;;;;;;;;16.10;64.38;99270.56;4948062;28;3975;-75
2023/07/27 13:01:25;;;;;;;;;;;;;;;16.12;64.38;99273.00;4955877;28;4005;-74
2023/07/27 13:04:17;;;;;;;;;;;;;;;16.14;64.50;99262.66;4947480;28;3909;-75
2023/07/27 13:07:10;;;;;;;;;;;;;;;16.15;64.54;99263.47;4947095;28;3967;-75
2023/07/27 13:10:01;;;;;;;;;;;;;;;16.16;64.53;99275.97;4955299;28;4097;-77
2023/07/27 13:12:52;;;;;;;;;;;;;;;16.16;64.69;99270.53;4943344;28;3965;-74
2023/07/27 13:15:45;;;;;;;;;;;;;;;16.17;64.62;99272.13;4949312;28;4412;-76
2023/07/27 13:18:36;;;;;;;;;;;;;;;16.18;64.70;99268.31;4956869;28;4644;-75
2023/07/27 13:21:27;;;;;;;;;;;;;;;16.20;64.61;99263.41;4959895;28;4754;-75
2023/07/27 13:24:19;;;;;;;;;;;;;;;16.21;64.76;99265.84;4963101;28;4721;-74
2023/07/27 13:27:11;;;;;;;;;;;;;;;16.22;64.74;99266.66;4959805;28;4774;-74
2023/07/27 13:30:04;;;;;;;;;;;;;;;16.22;64.77;99253.88;4957017;28;4801;-77
2023/07/27 13:32:56;;;;;;;;;;;;;;;16.25;64.77;99260.66;4953576;28;4509;-75
2023/07/27 13:35:47;;;;;;;;;;;;;;;16.25;64.83;99256.03;4960305;28;4765;-76
2023/07/27 13:38:39;;;;;;;;;;;;;;;16.26;64.82;99252.19;4958660;28;4892;-77
2023/07/27 13:41:31;;;;;;;;;;;;;;;16.27;64.91;99256.56;4956540;28;4838;-77
2023/07/27 13:44:22;;;;;;;;;;;;;;;16.30;64.46;99252.44;4949168;28;3949;-74
2023/07/27 13:47:15;;;;;;;;;;;;;;;16.45;64.62;99254.19;4947927;28;3924;-77
2023/07/27 13:50:08;;;;;;;;;;;;;;;16.37;64.94;99254.81;4950145;28;3991;-75
2023/07/27 13:53:00;;;;;;;;;;;;;;;16.35;65.15;99245.06;4948822;28;3924;-74
2023/07/27 13:55:52;;;;;;;;;;;;;;;16.36;65.08;99254.00;4948247;28;3845;-75
2023/07/27 13:58:44;;;;;;;;;;;;;;;16.60;64.42;99242.31;4949082;28;3795;-76
2023/07/27 14:01:36;;;;;;;;;;;;;;;16.56;64.52;99247.53;4954524;28;3964;-76
2023/07/27 14:04:27;;;;;;;;;;;;;;;16.53;64.71;99240.75;4958912;28;4167;-76
2023/07/27 14:07:20;;;;;;;;;;;;;;;16.54;64.70;99245.09;4964322;28;4824;-76
2023/07/27 14:10:12;;;;;;;;;;;;;;;16.56;64.76;99247.53;4960711;28;4696;-78
2023/07/27 14:13:04;;;;;;;;;;;;;;;16.57;64.98;99243.69;4956443;28;4918;-75
2023/07/27 14:15:55;;;;;;;;;;;;;;;16.58;64.97;99250.75;4959808;28;4647;-75
2023/07/27 14:18:46;;;;;;;;;;;;;;;16.61;65.12;99244.72;4960128;28;4679;-75
2023/07/27 14:21:37;;;;;;;;;;;;;;;16.61;65.20;99236.56;4957589;28;4601;-75
2023/07/27 14:24:30;;;;;;;;;;;;;;;16.62;65.14;99232.78;4955430;28;3984;-76
2023/07/27 14:27:23;;;;;;;;;;;;;;;16.65;65.30;99239.50;4957195;28;3998;-75
2023/07/27 14:30:14;;;;;;;;;;;;;;;16.67;65.28;99237.31;4960202;28;4622;-76
2023/07/27 14:33:06;;;;;;;;;;;;;;;16.68;65.32;99237.03;4961486;28;4868;-75
2023/07/27 14:35:58;;;;;;;;;;;;;;;16.70;65.24;99234.81;4961100;28;4870;-75
2023/07/27 14:38:50;;;;;;;;;;;;;;;16.71;65.37;99236.47;4959111;28;4724;-75
2023/07/27 14:41:42;;;;;;;;;;;;;;;16.73;65.52;99234.22;4961086;28;4078;-75
2023/07/27 14:44:34;;;;;;;;;;;;;;;16.73;65.51;99231.50;4955271;28;4574;-76
2023/07/27 14:47:26;;;;;;;;;;;;;;;16.75;65.67;99237.47;4957068;28;4833;-76
2023/07/27 14:50:17;;;;;;;;;;;;;;;16.75;65.77;99237.47;4956977;28;4070;-78
2023/07/27 14:53:09;;;;;;;;;;;;;;;16.75;65.82;99229.31;4957768;28;4107;-76
2023/07/27 14:56:01;;;;;;;;;;;;;;;16.76;65.98;99233.69;4958820;28;4797;-76
2023/07/27 14:58:52;;;;;;;;;;;;;;;16.76;65.95;99228.25;4960985;28;4556;-75
2023/07/27 15:01:44;;;;;;;;;;;;;;;16.76;66.08;99228.25;4959222;28;4116;-76
2023/07/27 15:04:36;;;;;;;;;;;;;;;16.77;66.09;99235.31;4958292;28;4157;-77
2023/07/27 15:07:28;;;;;;;;;;;;;;;16.79;66.14;99230.41;4958602;28;4082;-75
2023/07/27 15:10:20;;;;;;;;;;;;;;;16.80;66.22;99225.78;4956714;28;4743;-76
2023/07/27 15:13:11;;;;;;;;;;;;;;;16.82;66.21;99228.19;4953763;28;4122;-77
2023/07/27 15:16:04;;;;;;;;;;;;;;;16.84;66.23;99228.69;4958968;28;4875;-76
2023/07/27 15:18:55;;;;;;;;;;;;;;;16.85;66.31;99228.41;4959942;28;4024;-76
2023/07/27 15:21:47;;;;;;;;;;;;;;;16.85;66.37;99228.41;4958736;28;4790;-77
2023/07/27 15:24:39;;;;;;;;;;;;;;;16.87;66.43;99228.91;4955793;28;4922;-76
2023/07/27 15:27:31;;;;;;;;;;;;;;;16.89;66.63;99231.38;4952118;28;4050;-75
2023/07/27 15:30:23;;;;;;;;;;;;;;;16.89;66.53;99234.88;4955397;28;4311;-77
2023/07/27 15:33:15;;;;;;;;;;;;;;;16.88;66.54;99233.25;4952464;28;4580;-77
2023/07/27 15:36:06;;;;;;;;;;;;;;;16.51;66.73;99176.94;4948026;28;4770;-76
2023/07/27 15:38:58;;;;;;;;;;;;;;;16.92;66.66;99237.00;4943275;28;3916;-76
2023/07/27 15:41:50;;;;;;;;;;;;;;;16.92;66.71;99234.28;4955210;28;4043;-77
2023/07/27 15:44:41;;;;;;;;;;;;;;;16.94;66.70;99229.38;4953969;28;4355;-77
2023/07/27 15:47:33;;;;;;;;;;;;;;;16.96;66.92;99229.06;4952490;28;4057;-75
2023/07/27 15:50:25;;;;;;;;;;;;;;;16.96;66.93;99227.16;4958916;28;5041;-77
2023/07/27 15:53:17;;;;;;;;;;;;;;;16.98;66.87;99224.97;4960909;28;4759;-76
2023/07/27 15:56:09;;;;;;;;;;;;;;;16.99;66.88;99225.75;4958107;28;4812;-77
2023/07/27 15:59:01;;;;;;;;;;;;;;;17.00;67.01;99227.38;4948982;28;3869;-75
2023/07/27 16:01:53;;;;;;;;;;;;;;;17.00;67.09;99225.47;4953597;28;3968;-78
2023/07/27 16:04:45;;;;;;;;;;;;;;;17.02;67.10;99222.47;4960112;28;4678;-77
2023/07/27 16:07:37;;;;;;;;;;;;;;;17.04;66.92;99225.69;4958290;28;4105;-76
2023/07/27 16:10:29;;;;;;;;;;;;;;;17.06;67.23;99225.38;4959953;28;4777;-77
2023/07/27 16:13:21;;;;;;;;;;;;;;;17.07;67.12;99233.28;4961797;28;4820;-76
2023/07/27 16:16:13;;;;;;;;;;;;;;;17.08;67.34;99221.28;4947153;28;3946;-78
2023/07/27 16:19:05;;;;;;;;;;;;;;;17.10;67.32;99223.72;4949635;28;4355;-78
2023/07/27 16:21:57;;;;;;;;;;;;;;;17.10;67.24;99227.25;4950445;28;4080;-77
2023/07/27 16:24:49;;;;;;;;;;;;;;;17.11;67.27;99223.41;4946620;28;3911;-76
2023/07/27 16:27:40;;;;;;;;;;;;;;;17.13;67.37;99225.84;4949978;28;3825;-75
2023/07/27 16:30:33;;;;;;;;;;;;;;;17.14;67.16;99222.81;4959298;28;4052;-77
2023/07/27 16:33:24;;;;;;;;;;;;;;;17.16;67.42;99222.53;4959850;28;4879;-75
2023/07/27 16:36:16;;;;;;;;;;;;;;;17.17;67.48;99221.41;4962812;28;4952;-76
2023/07/27 16:39:08;;;;;;;;;;;;;;;17.19;67.60;99228.19;4958088;28;4162;-74
2023/07/27 16:42:00;;;;;;;;;;;;;;;17.19;67.55;99222.75;4960273;28;4158;-76
2023/07/27 16:44:52;;;;;;;;;;;;;;;17.21;67.56;99231.44;4958754;28;4739;-74
2023/07/27 16:47:43;;;;;;;;;;;;;;;17.22;67.35;99224.06;4958985;28;4156;-75
2023/07/27 16:50:35;;;;;;;;;;;;;;;17.24;67.39;99230.03;4957466;28;4117;-78
2023/07/27 16:53:27;;;;;;;;;;;;;;;17.25;67.61;99228.91;4956826;28;4651;-76
2023/07/27 16:56:18;;;;;;;;;;;;;;;17.27;67.62;99236.78;4962437;28;4833;-76
2023/07/27 16:59:10;;;;;;;;;;;;;;;17.29;67.61;99240.00;4957999;28;4792;-75
2023/07/27 17:02:02;;;;;;;;;;;;;;;17.30;67.64;99234.28;4960033;28;4717;-77
2023/07/27 17:04:53;;;;;;;;;;;;;;;17.30;67.72;99239.72;4965809;28;4708;-75
2023/07/27 17:07:38;;;;;;;;;;;;;;;17.32;67.67;99237.50;4991931;23;1465;-76
2023/07/27 17:10:30;;;;;;;;;;;;;;;17.34;67.52;99237.22;4984390;28;1348;-76
2023/07/27 17:13:22;;;;;;;;;;;;;;;17.35;67.65;99234.19;4984449;29;428;-76
2023/07/27 17:16:14;;;;;;;;;;;;;;;17.38;67.54;99236.34;5003377;28;1871;-75
2023/07/27 17:19:06;;;;;;;;;;;;;;;17.38;67.68;99235.50;5003788;28;323;-75
2023/07/27 17:21:58;;;;;;;;;;;;;;;17.39;67.84;99237.94;5003749;28;391;-76
2023/07/27 17:24:50;;;;;;;;;;;;;;;17.41;67.79;99237.63;5003620;28;657;-75
2023/07/27 17:27:42;;;;;;;;;;;;;;;17.42;67.84;99240.06;4984339;28;3836;-74
2023/07/27 17:30:34;;;;;;;;;;;;;;;17.43;67.76;99235.44;4942157;28;4048;-76
2023/07/27 17:33:26;;;;;;;;;;;;;;;17.44;67.73;99237.03;4941706;28;4077;-75
2023/07/27 17:36:18;;;;;;;;;;;;;;;17.46;67.64;99240.28;4947678;28;3968;-75
2023/07/27 17:39:11;;;;;;;;;;;;;;;17.47;67.65;99229.13;4953579;28;4786;-74
2023/07/27 17:42:03;;;;;;;;;;;;;;;17.48;67.71;99229.91;4955359;28;4900;-77
2023/07/27 17:44:54;;;;;;;;;;;;;;;17.49;67.93;99234.25;4958815;28;4848;-74
2023/07/27 17:47:46;;;;;;;;;;;;;;;17.51;67.74;99242.94;4957862;28;4480;-73
2023/07/27 17:50:38;;;;;;;;;;;;;;;17.53;67.80;99239.91;4956087;28;4825;-75
2023/07/27 17:53:40;;;;;;;;;;;;;;;17.53;67.96;99239.91;4959945;28;5402;-76
2023/07/27 17:56:37;;;;;;;;;;;;;;;17.54;67.75;99236.88;4961806;28;4791;-75
2023/07/27 17:59:29;;;;;;;;;;;;;;;17.56;67.95;99239.31;4958783;28;4882;-75
2023/07/27 18:02:21;;;;;;;;;;;;;;;17.56;67.78;99244.75;4959077;28;4789;-75
2023/07/27 18:05:13;;;;;;;;;;;;;;;17.56;67.89;99248.28;4959035;28;5052;-78
2023/07/27 18:08:06;;;;;;;;;;;;;;;17.58;67.87;99240.63;4977197;28;4906;-75
2023/07/27 18:10:59;;;;;;;;;;;;;;;17.59;67.80;99246.88;4970038;28;4983;-74
2023/07/27 18:13:50;;;;;;;;;;;;;;;17.60;67.86;99248.50;4978089;28;4891;-74
2023/07/27 18:16:42;;;;;;;;;;;;;;;17.61;67.96;99253.63;4975953;28;4767;-76
2023/07/27 18:19:34;;;;;;;;;;;;;;;17.62;68.11;99254.47;4979038;28;4848;-76
2023/07/27 18:22:27;;;;;;;;;;;;;;;17.63;68.15;99254.16;4974354;28;5244;-73
2023/07/27 18:25:18;;;;;;;;;;;;;;;17.64;67.99;99253.03;4971496;28;4833;-77
2023/07/27 18:28:10;;;;;;;;;;;;;;;17.65;67.90;99251.16;4981590;28;4652;-73
2023/07/27 18:31:02;;;;;;;;;;;;;;;17.65;67.98;99251.94;4975164;28;4603;-73
2023/07/27 18:33:54;;;;;;;;;;;;;;;17.65;67.98;99257.41;4977981;28;4846;-75
2023/07/27 18:36:46;;;;;;;;;;;;;;;17.67;68.22;99257.09;4969364;28;5193;-76
2023/07/27 18:39:38;;;;;;;;;;;;;;;17.67;67.95;99260.59;4961025;28;3850;-76
2023/07/27 18:42:30;;;;;;;;;;;;;;;17.67;67.99;99255.16;4963175;28;3958;-76
2023/07/27 18:45:22;;;;;;;;;;;;;;;17.68;68.21;99256.00;4963195;28;4207;-75
2023/07/27 18:48:14;;;;;;;;;;;;;;;17.68;68.00;99258.72;4964005;28;4033;-74
2023/07/27 18:51:06;;;;;;;;;;;;;;;17.68;68.05;99254.06;4966875;28;3930;-74
2023/07/27 18:53:58;;;;;;;;;;;;;;;17.69;68.01;99249.44;4963363;28;3932;-76
2023/07/27 18:56:50;;;;;;;;;;;;;;;17.70;68.07;99257.28;4963252;28;4128;-73
2023/07/27 18:59:42;;;;;;;;;;;;;;;17.70;68.30;99262.72;4967991;28;3879;-76
2023/07/27 19:02:34;;;;;;;;;;;;;;;17.72;68.05;99265.19;4978962;28;4386;-74
2023/07/27 19:05:26;;;;;;;;;;;;;;;17.73;68.28;99260.53;4973785;28;4951;-74
2023/07/27 19:08:20;;;;;;;;;;;;;;;17.72;68.18;99262.44;4974256;28;4881;-73
2023/07/27 19:11:12;;;;;;;;;;;;;;;17.72;68.17;99257.00;4976833;28;4934;-76
2023/07/27 19:14:04;;;;;;;;;;;;;;;17.72;68.31;99265.19;4983773;28;4818;-74
2023/07/27 19:16:56;;;;;;;;;;;;;;;17.74;68.30;99273.06;4980128;28;4778;-74
2023/07/27 19:19:48;;;;;;;;;;;;;;;17.74;68.15;99275.78;4968967;28;3922;-75
2023/07/27 19:22:40;;;;;;;;;;;;;;;17.73;68.41;99280.41;4969293;28;4171;-75
2023/07/27 19:25:32;;;;;;;;;;;;;;;17.74;68.06;99276.59;4970842;28;4030;-74
2023/07/27 19:28:24;;;;;;;;;;;;;;;17.74;68.25;99275.78;4975170;28;3830;-76
2023/07/27 19:31:16;;;;;;;;;;;;;;;17.75;68.26;99285.56;4966259;28;3953;-76
2023/07/27 19:34:08;;;;;;;;;;;;;;;17.74;68.15;99282.03;4973799;28;3857;-75
2023/07/27 19:36:59;;;;;;;;;;;;;;;17.76;68.28;99287.16;4977532;28;4626;-75
2023/07/27 19:39:51;;;;;;;;;;;;;;;17.75;68.50;99283.63;4977492;28;4739;-74
2023/07/27 19:42:43;;;;;;;;;;;;;;;17.76;68.17;99287.16;4977870;28;4536;-73
2023/07/27 19:45:35;;;;;;;;;;;;;;;17.75;68.57;99291.00;4979646;28;4007;-73
2023/07/27 19:48:26;;;;;;;;;;;;;;;17.76;68.48;99292.59;4978290;28;4732;-75
2023/07/27 19:51:18;;;;;;;;;;;;;;;17.76;68.30;99296.13;4969464;28;3988;-73
2023/07/27 19:54:10;;;;;;;;;;;;;;;17.76;68.19;99298.06;4965924;28;3993;-74
2023/07/27 19:57:02;;;;;;;;;;;;;;;17.76;68.47;99298.84;4973122;28;4060;-75
2023/07/27 19:59:53;;;;;;;;;;;;;;;17.77;68.31;99299.69;4971210;28;4010;-74
2023/07/27 20:02:47;;;;;;;;;;;;;;;17.77;68.33;99296.97;4973029;28;4009;-75
2023/07/27 20:05:39;;;;;;;;;;;;;;;17.77;68.61;99305.13;4971221;28;4085;-75
2023/07/27 20:08:30;;;;;;;;;;;;;;;17.76;68.31;99298.84;4971501;28;3957;-75
2023/07/27 20:11:22;;;;;;;;;;;;;;;17.77;68.33;99299.69;4972111;28;3962;-75
2023/07/27 20:14:14;;;;;;;;;;;;;;;17.78;68.75;99304.06;4970581;28;3903;-75
2023/07/27 20:17:06;;;;;;;;;;;;;;;17.78;68.38;99304.84;4971722;28;4177;-75
2023/07/27 20:19:59;;;;;;;;;;;;;;;17.78;68.51;99304.06;4968777;28;4002;-75
2023/07/27 20:22:51;;;;;;;;;;;;;;;17.78;68.36;99301.31;4968767;28;4164;-74
2023/07/27 20:25:45;;;;;;;;;;;;;;;17.78;68.41;99304.84;4969648;28;3939;-74